Terminal Aerodrome Forecast
Issued by NWS Charleston, SC

Home | Current Version | Previous Version | Text Only | Print | Product List | Glossary On
Versions: 1 2 3 4 5 6 7 8 9 10 11 12
000
FTUS42 KCHS 281129
TAFCHS
TAF
KCHS 281129Z 2812/2912 27007KT P6SM SKC
     FM281900 22012G18KT P6SM FEW050
     FM290030 22009KT P6SM SCT250=

USA.gov is the U.S. government's official web portal to all federal, state and local government web resources and services.